• Join FlightAware (Why Join?)
  • Login
  • US Flag 
Gobble Gobble! 
02:52PM EST


 

Airport Tracker/Info


-or-


 

Live Flight TrackerFlight Track Log ✈ UAL4202 ✈ 04-Apr-2013 ✈ KSTL - KEWR

Flight Track Log - Related Links

Times and Time Zones

All times are in EDT time to prevent confusion due to time zone crossing. See the UAL4202 flight status page for this flight to view local times or setup timezone preferences in your user account.

Time Position Orientation Groundspeed Altitude Reporting Facility
EDT Latitude Longitude Course Direction KTS MPH feet Rate Location/Type
08:28PM 38.7267 -90.2628 80° East 167 192 1,800  Level FAA TRACON SMA TRACON (SMA)
08:28PM 38.7219 -90.2439 108° East 177 204 2,400 1,740 Climbing FAA TRACON SMA TRACON (SMA)
08:29PM 38.7172 -90.2233 106° East 193 222 3,000 1,620 Climbing FAA TRACON SMA TRACON (SMA)
08:29PM 38.7111 -90.1931 104° East 222 255 3,500 1,500 Climbing FAA TRACON SMA TRACON (SMA)
08:29PM 38.7050 -90.1667 107° East 245 282 4,000 2,100 Climbing FAA TRACON SMA TRACON (SMA)
08:30PM 38.6986 -90.1394 107° East 259 298 4,900 2,520 Climbing FAA TRACON SMA TRACON (SMA)
08:30PM 38.6925 -90.1039 102° East 268 308 5,700 2,520 Climbing FAA TRACON SMA TRACON (SMA)
08:30PM 38.6939 -90.0747 86° East 270 311 6,600 2,460 Climbing FAA TRACON SMA TRACON (SMA)
08:31PM 38.7607 -89.8269 87° East  Level FlightAware Approximate
08:31PM 38.6983 -90.0461 79° East 268 308 7,400  Level FAA TRACON SMA TRACON (SMA)
08:31PM 38.7039 -90.0097 79° East 270 311 8,400 2,760 Climbing FAA TRACON SMA TRACON (SMA)
08:31PM 38.7083 -89.9811 79° East 269 310 9,200 1,860 Climbing FAA TRACON SMA TRACON (SMA)
08:32PM 38.7658 -89.6917 87° East  Level FlightAware Approximate
08:32PM 38.7131 -89.9511 79° East 275 316 9,700  Level FAA TRACON SMA TRACON (SMA)
08:32PM 38.7194 -89.9128 78° East 286 329 10,300 1,200 Climbing FAA TRACON SMA TRACON (SMA)
08:32PM 38.7247 -89.8797 78° East 303 349 10,500 900 Climbing FAA TRACON SMA TRACON (SMA)
08:32PM 38.7300 -89.8450 79° East 319 367 10,900 1,200 Climbing FAA TRACON SMA TRACON (SMA)
08:33PM 38.7822 -89.5583 80° East  Level FlightAware Approximate
08:33PM 38.7369 -89.8000 79° East 334 384 11,300  Level FAA TRACON SMA TRACON (SMA)
08:33PM 38.7422 -89.7631 80° East 343 395 11,700 1,260 Climbing FAA TRACON SMA TRACON (SMA)
08:34PM 38.7561 -89.6772 78° East 355 409 12,600 1,380 Climbing FAA TRACON SMA TRACON (SMA)
08:34PM 38.7619 -89.6389 79° East 358 412 13,100 1,500 Climbing FAA TRACON SMA TRACON (SMA)
08:35PM 38.7675 -89.6003 80° East 360 414 13,600 1,920 Climbing FAA TRACON SMA TRACON (SMA)
08:35PM 38.7747 -89.5525 79° East 356 410 14,400 1,800 Climbing FAA TRACON SMA TRACON (SMA)
08:35PM 38.7811 -89.5144 78° East 355 409 14,800 1,020 Climbing FAA TRACON SMA TRACON (SMA)
08:36PM 38.7872 -89.4756 79° East 358 412 15,100 1,200 Climbing FAA TRACON SMA TRACON (SMA)
08:36PM 38.7939 -89.4264 80° East 364 419 15,600 1,020 Climbing FAA TRACON SMA TRACON (SMA)
08:36PM 38.7983 -89.3861 82° East 370 426 15,800 720 Climbing FAA TRACON SMA TRACON (SMA)
08:37PM 38.8044 -89.3456 79° East 375 432 16,100 1,200 Climbing FAA TRACON SMA TRACON (SMA)
08:37PM 38.8125 -89.2942 79° East 381 438 16,600 1,500 Climbing FAA TRACON SMA TRACON (SMA)
08:37PM 38.8164 -89.2531 83° East 380 437 17,100 1,320 Climbing FAA TRACON SMA TRACON (SMA)
08:38PM 38.8233 -89.2119 78° East 382 440 17,500 1,020 Climbing FAA TRACON SMA TRACON (SMA)
08:38PM 38.8300 -89.1597 81° East 385 443 17,800 1,020 Climbing FAA TRACON SMA TRACON (SMA)
08:38PM 38.8361 -89.1183 79° East 385 443 18,200 1,020 Climbing FAA TRACON SMA TRACON (SMA)
08:39PM 38.8422 -89.0761 79° East 390 449 18,500 420 Climbing FAA TRACON SMA TRACON (SMA)
08:39PM 38.8422 -89.0761 339° North 390 449 18,500 1,020 Level FAA TRACON SMA TRACON (SMA)
08:40PM 38.8592 -88.9786 77° East 398 458 19,700 1,260 Climbing Kansas City Center
08:41PM 38.8803 -88.8278 80° East 405 466 20,900 1,080 Climbing Kansas City Center
08:42PM 38.8981 -88.6825 81° East 411 473 22,000 900 Climbing Kansas City Center
08:43PM 38.9150 -88.5500 81° East 416 479 22,800 1,260 Climbing Kansas City Center
08:44PM 38.9508 -88.3808 75° East 405 466 24,700 1,440 Climbing Kansas City Center
08:44PM 38.9717 -88.2989 72° East 412 474 25,300 1,140 Climbing Indianapolis Center
08:45PM 39.0100 -88.1608 70° East 408 470 26,600 1,140 Climbing Indianapolis Center
08:47PM 39.0486 -88.0231 70° East 408 470 27,700 1,080 Climbing Indianapolis Center
08:48PM 39.0861 -87.8833 71° East 410 472 28,900 1,260 Climbing Indianapolis Center
08:49PM 39.1236 -87.7475 70° East 401 461 30,300 1,020 Climbing Indianapolis Center
08:50PM 39.1644 -87.5989 70° East 409 471 31,000 480 Climbing Indianapolis Center
08:51PM 39.2058 -87.4511 70° East 433 498 31,400 720 Climbing Indianapolis Center
08:52PM 39.2461 -87.2989 71° East 442 509 32,500 780 Climbing Indianapolis Center
08:53PM 39.2939 -87.1192 71° East 451 519 33,000 420 Climbing Indianapolis Center
08:54PM 39.3369 -86.9603 71° East 464 534 33,400 780 Climbing Indianapolis Center
08:55PM 39.3786 -86.8008 71° East 465 535 34,600 780 Climbing Indianapolis Center
08:56PM 39.4194 -86.6447 71° East 459 528 35,000 180 Climbing Indianapolis Center
08:57PM 39.4628 -86.4828 71° East 470 541 35,000  Level Indianapolis Center
08:58PM 39.5047 -86.3219 71° East 472 543 35,000  Level Indianapolis Center
08:59PM 39.5461 -86.1656 71° East 464 534 35,000  Level Indianapolis Center
09:00PM 39.5858 -86.0069 72° East 465 535 35,000  Level Indianapolis Center
09:01PM 39.6367 -85.8161 71° East 478 550 35,000  Level Indianapolis Center
09:02PM 39.6950 -85.6611 64° Northeast 476 548 35,000  Level Indianapolis Center
09:03PM 39.7617 -85.5147 59° Northeast 469 540 35,000  Level Indianapolis Center
09:04PM 39.8264 -85.3658 60° Northeast 469 540 35,000  Level Indianapolis Center
09:05PM 39.8942 -85.2175 59° Northeast 472 543 35,000  Level Indianapolis Center
09:06PM 39.9589 -85.0667 61° Northeast 473 544 35,000  Level Indianapolis Center
09:07PM 40.0272 -84.9144 60° Northeast 480 552 35,000  Level Indianapolis Center
09:08PM 40.0994 -84.7469 61° Northeast 486 559 35,000  Level Indianapolis Center
09:09PM 40.1681 -84.5914 60° Northeast 488 562 35,000  Level Indianapolis Center
09:10PM 40.2369 -84.4350 60° Northeast 492 566 35,000  Level Indianapolis Center
09:11PM 40.3044 -84.2775 61° Northeast 491 565 35,000  Level Indianapolis Center
09:12PM 40.3717 -84.1197 61° Northeast 489 563 35,000  Level Indianapolis Center
09:13PM 40.4392 -83.9633 60° Northeast 488 562 35,000  Level Indianapolis Center
09:14PM 40.5058 -83.8067 61° Northeast 485 558 35,000  Level Indianapolis Center
09:15PM 40.5728 -83.6475 61° Northeast 489 563 35,000  Level Indianapolis Center
09:16PM 40.6275 -83.5186 61° Northeast 487 560 35,000  Level Cleveland Center
09:17PM 40.6961 -83.3600 60° Northeast 488 562 35,000  Level Cleveland Center
09:18PM 40.7669 -83.1875 61° Northeast 488 562 35,000 -60 Level Cleveland Center
09:19PM 40.8308 -83.0308 62° Northeast 488 562 34,900  Descending Cleveland Center
09:20PM 40.8947 -82.8739 62° Northeast 482 555 35,000  Climbing Cleveland Center
09:21PM 40.9581 -82.7194 61° Northeast 481 554 35,000  Level Cleveland Center
09:22PM 41.0256 -82.5567 61° Northeast 481 554 35,000  Level Cleveland Center
09:23PM 41.0822 -82.4150 62° Northeast 490 564 35,000  Level Cleveland Center
09:24PM 41.1472 -82.2542 62° Northeast 490 564 35,000  Level Cleveland Center
09:25PM 41.2206 -82.0739 62° Northeast 490 564 35,000  Level Cleveland Center
09:26PM 41.2872 -81.9094 62° Northeast 490 564 35,000  Level Cleveland Center
09:27PM 41.3494 -81.7503 62° Northeast 490 564 35,000  Level Cleveland Center
09:28PM 41.4156 -81.5853 62° Northeast 490 564 35,000  Level Cleveland Center
09:29PM 41.4775 -81.4228 63° Northeast 490 564 35,000  Level Cleveland Center
09:30PM 41.5411 -81.2572 63° Northeast 490 564 35,000  Level Cleveland Center
09:31PM 41.6003 -81.1081 62° Northeast 490 564 35,000  Level Cleveland Center
09:32PM 41.6633 -80.9417 63° Northeast 490 564 35,000  Level Cleveland Center
09:33PM 41.7283 -80.7750 62° Northeast 496 571 35,000  Level Cleveland Center
09:34PM 41.7850 -80.6053 66° East 501 577 35,000  Level Cleveland Center
09:35PM 41.7847 -80.4189 90° East 484 557 35,000  Level Cleveland Center
09:36PM 41.7656 -80.2408 98° East 483 556 35,000  Level Cleveland Center
09:37PM 41.7461 -80.0406 97° East 488 562 35,000  Level Cleveland Center
09:38PM 41.7283 -79.8625 98° East 488 562 35,000  Level Cleveland Center
09:39PM 41.7083 -79.6847 99° East 483 556 35,000  Level Cleveland Center
09:40PM 41.6881 -79.5044 99° East 483 556 35,000  Level Cleveland Center
09:41PM 41.6697 -79.3294 98° East 483 556 35,000  Level Cleveland Center
09:42PM 41.6508 -79.1519 98° East 483 556 35,000  Level Cleveland Center
09:43PM 41.6319 -78.9747 98° East 483 556 35,000  Level Cleveland Center
09:44PM 41.6106 -78.8003 99° East 483 556 35,000 -360 Level Cleveland Center
09:45PM 41.5911 -78.6258 98° East 483 556 34,300 -1,080 Descending Cleveland Center
09:47PM 41.5464 -78.2469 99° East 474 545 31,700 -1,080 Descending New York Center
09:48PM 41.5244 -78.0672 99° East 485 558 31,000 -360 Descending New York Center
09:49PM 41.5017 -77.8900 100° East 485 558 31,000  Level New York Center
09:50PM 41.4800 -77.7272 100° East 490 564 31,000  Level New York Center
09:51PM 41.4550 -77.5500 101° East 490 564 31,000  Level New York Center
09:52PM 41.4222 -77.3531 102° East 490 564 31,000  Level New York Center
09:53PM 41.3967 -77.1761 101° East 490 564 31,000  Level New York Center
09:54PM 41.3706 -76.9994 101° East 495 570 31,000 -960 Level New York Center
09:55PM 41.3444 -76.8203 101° East 495 570 29,100 -1,980 Descending New York Center
09:56PM 41.3047 -76.6536 108° East 489 563 27,000 -2,340 Descending New York Center
09:57PM 41.2589 -76.4869 110° East 489 563 24,500 -2,820 Descending New York Center
09:58PM 41.2144 -76.3258 110° East 477 549 21,600 -2,640 Descending New York Center
09:59PM 41.1772 -76.1850 109° East 464 534 19,300 -2,400 Descending New York Center
10:00PM 41.1364 -76.0275 109° East 427 491 16,800 -2,220 Descending New York Center
10:01PM 41.1022 -75.9036 110° East 400 460 14,900 -1,800 Descending New York Center
10:02PM 41.0644 -75.7631 110° East 393 452 13,300 -1,020 Descending New York Center
10:03PM 41.0225 -75.6169 111° Southeast 393 452 12,900 -360 Descending New York Center
10:04PM 40.9842 -75.4850 111° Southeast 393 452 12,600 -900 Descending New York Center
10:05PM 40.9517 -75.3592 109° East 372 428 11,100 -1,380 Descending New York Center
10:06PM 40.9225 -75.2500 109° East 335 386 9,900 -1,380 Descending New York Center
10:07PM 40.9033 -75.1500 104° East 297 342 8,400 -1,380 Descending New York Center
10:08PM 40.8986 -75.0536 94° East 281 323 7,100 -720 Descending New York Center
10:09PM 40.8939 -74.9492 93° East 281 323 7,000 -480 Descending New York Center
10:10PM 40.9106 -74.8347 79° East 286 329 6,200 -540 Descending New York Center
10:11PM 40.9306 -74.7317 76° East 292 336 6,000 -120 Descending New York Center
10:12PM 40.9503 -74.6392 74° East 292 336 6,000 -360 Level New York Center
10:13PM 40.9747 -74.5281 74° East 287 330 5,300 -600 Descending New York Center
10:14PM 40.9836 -74.4461 82° East 267 307 4,900 -780 Descending New York Center
10:15PM 40.9833 -74.3667 90° East 235 270 4,000 -1,020 Descending New York TRACON
10:16PM 40.9833 -74.2833 90° East 231 266 3,100 -540 Descending New York TRACON
10:17PM 40.9667 -74.2000 105° East 196 226 3,000 -60 Descending New York TRACON
10:18PM 40.9500 -74.1500 114° Southeast 187 215 3,000  Level New York TRACON
10:19PM 40.9167 -74.1167 143° Southeast 180 207 3,000 -240 Level New York TRACON
10:20PM 40.8500 -74.0833 159° South 175 201 2,500 -240 Descending New York TRACON
10:21PM 40.8167 -74.0833 180° South 151 174 2,500 -300 Level New York TRACON
10:22PM 40.7833 -74.1167 217° Southwest 140 161 1,900 -720 Descending New York TRACON
10:23PM 40.7500 -74.1333 201° Southwest 135 155 1,200 -720 Descending New York TRACON
10:24PM 40.7167 -74.1500 201° Southwest 114 131 600 -600 Descending New York TRACON
10:26PM 40.6925 -74.1687 146° Southeast  Level Estimated